sensor_id;sensor_type;location;lat;lon;timestamp;P1;durP1;ratioP1;P2;durP2;ratioP2
5333;SDS011;2689;50.954;7.116;2022-12-11T11:25:52;45.90;;;22.87;;
5333;SDS011;2689;50.954;7.116;2022-12-11T11:31:42;53.40;;;23.53;;
5333;SDS011;2689;50.954;7.116;2022-12-11T11:42:39;48.07;;;22.90;;
5333;SDS011;2689;50.954;7.116;2022-12-11T11:45:11;47.60;;;24.03;;
5333;SDS011;2689;50.954;7.116;2022-12-11T11:47:44;45.40;;;23.27;;
5333;SDS011;2689;50.954;7.116;2022-12-11T11:50:21;47.13;;;22.00;;
5333;SDS011;2689;50.954;7.116;2022-12-11T11:53:01;52.60;;;24.20;;
5333;SDS011;2689;50.954;7.116;2022-12-11T11:55:34;41.33;;;21.37;;
5333;SDS011;2689;50.954;7.116;2022-12-11T11:58:13;46.53;;;22.13;;
5333;SDS011;2689;50.954;7.116;2022-12-11T12:00:43;51.37;;;22.77;;
5333;SDS011;2689;50.954;7.116;2022-12-11T12:03:11;42.53;;;21.00;;
5333;SDS011;2689;50.954;7.116;2022-12-11T12:05:42;42.63;;;20.73;;
5333;SDS011;2689;50.954;7.116;2022-12-11T12:08:16;37.63;;;18.37;;
5333;SDS011;2689;50.954;7.116;2022-12-11T12:10:58;51.03;;;23.83;;
5333;SDS011;2689;50.954;7.116;2022-12-11T12:13:38;44.30;;;20.60;;
5333;SDS011;2689;50.954;7.116;2022-12-11T12:16:16;36.30;;;16.43;;
5333;SDS011;2689;50.954;7.116;2022-12-11T12:18:51;43.20;;;20.70;;
5333;SDS011;2689;50.954;7.116;2022-12-11T12:21:35;35.07;;;17.43;;
5333;SDS011;2689;50.954;7.116;2022-12-11T12:24:09;43.30;;;20.23;;
5333;SDS011;2689;50.954;7.116;2022-12-11T12:27:00;39.77;;;19.80;;
5333;SDS011;2689;50.954;7.116;2022-12-11T12:30:07;43.40;;;19.70;;
5333;SDS011;2689;50.954;7.116;2022-12-11T12:32:41;40.27;;;18.97;;
5333;SDS011;2689;50.954;7.116;2022-12-11T12:35:20;44.10;;;19.20;;
5333;SDS011;2689;50.954;7.116;2022-12-11T12:38:25;38.80;;;19.53;;
5333;SDS011;2689;50.954;7.116;2022-12-11T12:41:13;36.60;;;20.23;;
5333;SDS011;2689;50.954;7.116;2022-12-11T12:44:07;43.27;;;21.10;;
5333;SDS011;2689;50.954;7.116;2022-12-11T12:49:36;42.40;;;19.53;;
5333;SDS011;2689;50.954;7.116;2022-12-11T12:52:10;38.23;;;17.70;;
5333;SDS011;2689;50.954;7.116;2022-12-11T12:54:39;42.13;;;19.73;;
5333;SDS011;2689;50.954;7.116;2022-12-11T12:57:48;46.97;;;19.93;;
5333;SDS011;2689;50.954;7.116;2022-12-11T13:00:27;37.77;;;18.20;;
5333;SDS011;2689;50.954;7.116;2022-12-11T13:02:57;35.40;;;17.13;;
5333;SDS011;2689;50.954;7.116;2022-12-11T13:05:29;42.50;;;18.93;;
5333;SDS011;2689;50.954;7.116;2022-12-11T13:07:58;46.53;;;18.57;;
5333;SDS011;2689;50.954;7.116;2022-12-11T13:10:29;41.53;;;19.57;;
5333;SDS011;2689;50.954;7.116;2022-12-11T13:12:57;37.23;;;17.40;;
5333;SDS011;2689;50.954;7.116;2022-12-11T13:15:26;37.77;;;19.20;;
5333;SDS011;2689;50.954;7.116;2022-12-11T13:18:28;39.47;;;18.87;;
5333;SDS011;2689;50.954;7.116;2022-12-11T13:20:57;37.03;;;16.77;;
5333;SDS011;2689;50.954;7.116;2022-12-11T13:23:31;35.37;;;17.30;;
5333;SDS011;2689;50.954;7.116;2022-12-11T13:26:04;33.57;;;16.97;;
5333;SDS011;2689;50.954;7.116;2022-12-11T13:28:45;35.37;;;16.70;;
5333;SDS011;2689;50.954;7.116;2022-12-11T13:34:23;29.97;;;14.90;;
5333;SDS011;2689;50.954;7.116;2022-12-11T13:36:53;33.50;;;16.67;;
5333;SDS011;2689;50.954;7.116;2022-12-11T13:39:31;34.27;;;16.80;;
5333;SDS011;2689;50.954;7.116;2022-12-11T13:42:02;38.00;;;17.00;;
5333;SDS011;2689;50.954;7.116;2022-12-11T13:44:32;38.10;;;19.07;;
5333;SDS011;2689;50.954;7.116;2022-12-11T13:47:03;37.00;;;16.90;;
5333;SDS011;2689;50.954;7.116;2022-12-11T13:49:34;31.37;;;16.40;;
5333;SDS011;2689;50.954;7.116;2022-12-11T13:52:02;35.10;;;17.60;;
5333;SDS011;2689;50.954;7.116;2022-12-11T13:54:31;34.20;;;16.50;;
5333;SDS011;2689;50.954;7.116;2022-12-11T13:57:01;40.33;;;17.87;;
5333;SDS011;2689;50.954;7.116;2022-12-11T13:59:41;38.87;;;16.90;;
5333;SDS011;2689;50.954;7.116;2022-12-11T14:02:13;33.70;;;16.60;;
5333;SDS011;2689;50.954;7.116;2022-12-11T14:04:45;36.07;;;16.23;;
5333;SDS011;2689;50.954;7.116;2022-12-11T14:07:14;35.60;;;16.83;;
5333;SDS011;2689;50.954;7.116;2022-12-11T14:09:46;29.50;;;16.40;;
5333;SDS011;2689;50.954;7.116;2022-12-11T14:12:14;26.70;;;14.03;;
5333;SDS011;2689;50.954;7.116;2022-12-11T14:14:44;33.87;;;15.50;;
5333;SDS011;2689;50.954;7.116;2022-12-11T14:17:16;36.90;;;17.03;;
5333;SDS011;2689;50.954;7.116;2022-12-11T14:19:50;31.50;;;16.10;;
5333;SDS011;2689;50.954;7.116;2022-12-11T14:22:18;32.70;;;16.43;;
5333;SDS011;2689;50.954;7.116;2022-12-11T14:24:47;27.30;;;14.53;;
5333;SDS011;2689;50.954;7.116;2022-12-11T14:27:15;34.20;;;16.87;;
5333;SDS011;2689;50.954;7.116;2022-12-11T14:29:44;30.87;;;15.30;;
5333;SDS011;2689;50.954;7.116;2022-12-11T14:32:27;28.93;;;14.77;;
5333;SDS011;2689;50.954;7.116;2022-12-11T14:40:03;35.40;;;16.97;;
5333;SDS011;2689;50.954;7.116;2022-12-11T14:42:34;43.53;;;22.50;;
5333;SDS011;2689;50.954;7.116;2022-12-11T14:45:06;32.27;;;14.77;;
5333;SDS011;2689;50.954;7.116;2022-12-11T14:47:42;39.60;;;17.70;;
5333;SDS011;2689;50.954;7.116;2022-12-11T14:50:10;31.30;;;16.80;;
5333;SDS011;2689;50.954;7.116;2022-12-11T14:52:43;40.10;;;18.00;;
5333;SDS011;2689;50.954;7.116;2022-12-11T14:55:19;32.77;;;16.20;;
5333;SDS011;2689;50.954;7.116;2022-12-11T14:57:49;36.70;;;17.30;;
5333;SDS011;2689;50.954;7.116;2022-12-11T15:00:23;32.60;;;15.33;;
5333;SDS011;2689;50.954;7.116;2022-12-11T15:02:58;33.77;;;15.50;;
5333;SDS011;2689;50.954;7.116;2022-12-11T15:05:27;30.17;;;15.20;;
5333;SDS011;2689;50.954;7.116;2022-12-11T15:07:56;29.40;;;16.13;;
5333;SDS011;2689;50.954;7.116;2022-12-11T15:10:27;33.10;;;15.57;;
5333;SDS011;2689;50.954;7.116;2022-12-11T15:13:00;30.17;;;16.92;;
5333;SDS011;2689;50.954;7.116;2022-12-11T15:15:29;30.40;;;15.97;;
5333;SDS011;2689;50.954;7.116;2022-12-11T15:17:58;31.63;;;16.07;;
5333;SDS011;2689;50.954;7.116;2022-12-11T15:20:28;31.63;;;15.57;;
5333;SDS011;2689;50.954;7.116;2022-12-11T15:22:56;32.53;;;15.27;;
5333;SDS011;2689;50.954;7.116;2022-12-11T15:25:27;28.00;;;15.00;;
5333;SDS011;2689;50.954;7.116;2022-12-11T15:27:55;37.63;;;14.30;;
5333;SDS011;2689;50.954;7.116;2022-12-11T15:30:28;30.53;;;15.60;;
5333;SDS011;2689;50.954;7.116;2022-12-11T15:33:01;33.10;;;15.97;;
5333;SDS011;2689;50.954;7.116;2022-12-11T15:35:30;35.17;;;15.60;;
5333;SDS011;2689;50.954;7.116;2022-12-11T15:37:57;31.67;;;15.23;;
5333;SDS011;2689;50.954;7.116;2022-12-11T15:40:24;30.70;;;15.80;;
5333;SDS011;2689;50.954;7.116;2022-12-11T15:42:56;36.67;;;17.53;;
5333;SDS011;2689;50.954;7.116;2022-12-11T15:45:26;38.23;;;16.73;;
5333;SDS011;2689;50.954;7.116;2022-12-11T15:48:02;36.30;;;16.97;;
5333;SDS011;2689;50.954;7.116;2022-12-11T15:50:35;38.30;;;19.20;;
5333;SDS011;2689;50.954;7.116;2022-12-11T15:53:02;31.50;;;16.03;;
5333;SDS011;2689;50.954;7.116;2022-12-11T15:55:28;34.10;;;16.43;;
5333;SDS011;2689;50.954;7.116;2022-12-11T15:58:06;34.60;;;15.80;;
5333;SDS011;2689;50.954;7.116;2022-12-11T16:00:37;34.27;;;16.10;;
5333;SDS011;2689;50.954;7.116;2022-12-11T16:03:19;36.30;;;16.63;;
5333;SDS011;2689;50.954;7.116;2022-12-11T16:05:58;33.47;;;17.10;;
5333;SDS011;2689;50.954;7.116;2022-12-11T16:08:27;31.40;;;15.17;;
5333;SDS011;2689;50.954;7.116;2022-12-11T16:10:57;43.63;;;17.77;;
5333;SDS011;2689;50.954;7.116;2022-12-11T16:13:30;33.33;;;17.07;;
5333;SDS011;2689;50.954;7.116;2022-12-11T16:15:57;38.30;;;20.50;;
5333;SDS011;2689;50.954;7.116;2022-12-11T16:18:24;33.20;;;17.63;;
5333;SDS011;2689;50.954;7.116;2022-12-11T16:20:51;36.73;;;18.43;;
5333;SDS011;2689;50.954;7.116;2022-12-11T16:23:18;36.13;;;18.10;;
5333;SDS011;2689;50.954;7.116;2022-12-11T16:25:49;38.30;;;18.03;;
5333;SDS011;2689;50.954;7.116;2022-12-11T16:28:16;44.43;;;18.13;;
5333;SDS011;2689;50.954;7.116;2022-12-11T16:30:46;36.70;;;17.67;;
5333;SDS011;2689;50.954;7.116;2022-12-11T16:33:13;32.70;;;16.10;;
5333;SDS011;2689;50.954;7.116;2022-12-11T16:35:41;31.63;;;16.37;;
5333;SDS011;2689;50.954;7.116;2022-12-11T16:38:08;38.17;;;17.33;;
5333;SDS011;2689;50.954;7.116;2022-12-11T16:40:36;33.37;;;15.63;;
5333;SDS011;2689;50.954;7.116;2022-12-11T16:43:03;28.23;;;15.03;;
5333;SDS011;2689;50.954;7.116;2022-12-11T16:45:31;33.20;;;16.20;;
5333;SDS011;2689;50.954;7.116;2022-12-11T16:48:02;32.67;;;17.57;;
5333;SDS011;2689;50.954;7.116;2022-12-11T16:50:44;32.10;;;16.73;;
5333;SDS011;2689;50.954;7.116;2022-12-11T16:53:10;39.43;;;17.07;;
5333;SDS011;2689;50.954;7.116;2022-12-11T16:55:39;33.97;;;16.10;;
5333;SDS011;2689;50.954;7.116;2022-12-11T16:58:06;35.17;;;16.90;;
5333;SDS011;2689;50.954;7.116;2022-12-11T17:00:33;31.23;;;16.20;;
5333;SDS011;2689;50.954;7.116;2022-12-11T17:03:01;28.30;;;14.90;;
5333;SDS011;2689;50.954;7.116;2022-12-11T17:05:29;30.50;;;15.40;;
5333;SDS011;2689;50.954;7.116;2022-12-11T17:07:56;31.73;;;16.70;;
5333;SDS011;2689;50.954;7.116;2022-12-11T17:10:22;29.77;;;16.47;;
5333;SDS011;2689;50.954;7.116;2022-12-11T17:12:49;31.73;;;16.50;;
5333;SDS011;2689;50.954;7.116;2022-12-11T17:15:16;27.40;;;14.30;;
5333;SDS011;2689;50.954;7.116;2022-12-11T17:17:43;31.10;;;15.80;;
5333;SDS011;2689;50.954;7.116;2022-12-11T17:20:11;42.00;;;18.57;;
5333;SDS011;2689;50.954;7.116;2022-12-11T17:22:38;51.40;;;22.10;;
5333;SDS011;2689;50.954;7.116;2022-12-11T17:25:05;41.50;;;19.03;;
5333;SDS011;2689;50.954;7.116;2022-12-11T17:27:32;37.13;;;19.23;;
5333;SDS011;2689;50.954;7.116;2022-12-11T17:29:59;48.53;;;19.73;;
5333;SDS011;2689;50.954;7.116;2022-12-11T17:32:26;33.90;;;17.33;;
5333;SDS011;2689;50.954;7.116;2022-12-11T17:34:53;57.43;;;27.83;;
5333;SDS011;2689;50.954;7.116;2022-12-11T17:37:21;52.63;;;25.10;;
5333;SDS011;2689;50.954;7.116;2022-12-11T17:39:48;44.77;;;23.57;;
5333;SDS011;2689;50.954;7.116;2022-12-11T17:42:14;39.00;;;18.90;;
5333;SDS011;2689;50.954;7.116;2022-12-11T17:44:41;38.47;;;19.70;;
5333;SDS011;2689;50.954;7.116;2022-12-11T17:47:09;35.60;;;17.97;;
5333;SDS011;2689;50.954;7.116;2022-12-11T17:49:38;31.23;;;17.20;;
5333;SDS011;2689;50.954;7.116;2022-12-11T17:52:04;27.93;;;16.63;;
5333;SDS011;2689;50.954;7.116;2022-12-11T17:54:33;27.93;;;15.27;;
5333;SDS011;2689;50.954;7.116;2022-12-11T17:57:00;37.93;;;17.40;;
5333;SDS011;2689;50.954;7.116;2022-12-11T17:59:26;36.97;;;17.03;;
5333;SDS011;2689;50.954;7.116;2022-12-11T18:01:53;32.33;;;18.17;;
5333;SDS011;2689;50.954;7.116;2022-12-11T18:04:20;32.07;;;18.50;;
5333;SDS011;2689;50.954;7.116;2022-12-11T18:06:47;34.00;;;17.10;;
5333;SDS011;2689;50.954;7.116;2022-12-11T18:09:15;31.03;;;15.63;;
5333;SDS011;2689;50.954;7.116;2022-12-11T18:11:44;35.60;;;16.60;;
5333;SDS011;2689;50.954;7.116;2022-12-11T18:14:10;30.67;;;16.40;;
5333;SDS011;2689;50.954;7.116;2022-12-11T18:16:37;36.53;;;18.87;;
5333;SDS011;2689;50.954;7.116;2022-12-11T18:19:05;37.00;;;18.87;;
5333;SDS011;2689;50.954;7.116;2022-12-11T18:21:33;27.03;;;15.50;;
5333;SDS011;2689;50.954;7.116;2022-12-11T18:24:04;31.37;;;16.50;;
5333;SDS011;2689;50.954;7.116;2022-12-11T18:26:32;30.53;;;15.03;;
5333;SDS011;2689;50.954;7.116;2022-12-11T18:29:00;32.30;;;17.33;;
5333;SDS011;2689;50.954;7.116;2022-12-11T18:31:27;29.50;;;16.20;;
5333;SDS011;2689;50.954;7.116;2022-12-11T18:33:53;27.47;;;16.47;;
5333;SDS011;2689;50.954;7.116;2022-12-11T18:36:20;25.90;;;14.80;;
5333;SDS011;2689;50.954;7.116;2022-12-11T18:38:47;32.73;;;17.03;;
5333;SDS011;2689;50.954;7.116;2022-12-11T18:41:15;35.87;;;17.67;;
5333;SDS011;2689;50.954;7.116;2022-12-11T18:43:42;36.23;;;16.87;;
5333;SDS011;2689;50.954;7.116;2022-12-11T18:46:11;30.57;;;15.97;;
5333;SDS011;2689;50.954;7.116;2022-12-11T18:48:40;29.90;;;17.17;;
5333;SDS011;2689;50.954;7.116;2022-12-11T18:51:11;34.13;;;16.50;;
5333;SDS011;2689;50.954;7.116;2022-12-11T18:53:39;30.23;;;16.50;;
5333;SDS011;2689;50.954;7.116;2022-12-11T18:56:06;32.90;;;18.67;;
5333;SDS011;2689;50.954;7.116;2022-12-11T18:58:36;35.97;;;18.47;;
5333;SDS011;2689;50.954;7.116;2022-12-11T19:01:06;33.57;;;17.83;;
5333;SDS011;2689;50.954;7.116;2022-12-11T19:03:35;35.87;;;18.80;;
5333;SDS011;2689;50.954;7.116;2022-12-11T19:06:05;33.20;;;17.50;;
5333;SDS011;2689;50.954;7.116;2022-12-11T19:08:34;29.67;;;17.13;;
5333;SDS011;2689;50.954;7.116;2022-12-11T19:11:01;31.50;;;17.30;;
5333;SDS011;2689;50.954;7.116;2022-12-11T19:13:28;33.07;;;17.73;;
5333;SDS011;2689;50.954;7.116;2022-12-11T19:15:55;36.60;;;19.20;;
5333;SDS011;2689;50.954;7.116;2022-12-11T19:18:21;36.43;;;19.37;;
5333;SDS011;2689;50.954;7.116;2022-12-11T19:20:50;30.07;;;17.37;;
5333;SDS011;2689;50.954;7.116;2022-12-11T19:23:17;27.47;;;16.27;;
5333;SDS011;2689;50.954;7.116;2022-12-11T19:25:45;27.30;;;15.53;;
5333;SDS011;2689;50.954;7.116;2022-12-11T19:28:13;31.90;;;17.73;;
5333;SDS011;2689;50.954;7.116;2022-12-11T19:30:40;37.70;;;18.40;;
5333;SDS011;2689;50.954;7.116;2022-12-11T19:33:08;30.50;;;17.80;;
5333;SDS011;2689;50.954;7.116;2022-12-11T19:35:35;27.50;;;16.63;;
5333;SDS011;2689;50.954;7.116;2022-12-11T19:38:04;32.73;;;18.47;;
5333;SDS011;2689;50.954;7.116;2022-12-11T19:40:32;33.23;;;17.00;;
5333;SDS011;2689;50.954;7.116;2022-12-11T19:42:59;31.50;;;17.17;;
5333;SDS011;2689;50.954;7.116;2022-12-11T19:45:26;36.83;;;18.37;;
5333;SDS011;2689;50.954;7.116;2022-12-11T19:47:52;33.60;;;18.60;;
5333;SDS011;2689;50.954;7.116;2022-12-11T19:50:19;34.33;;;19.70;;
5333;SDS011;2689;50.954;7.116;2022-12-11T19:52:46;35.43;;;19.00;;
5333;SDS011;2689;50.954;7.116;2022-12-11T19:55:14;29.77;;;16.90;;
5333;SDS011;2689;50.954;7.116;2022-12-11T19:57:43;35.47;;;17.57;;
5333;SDS011;2689;50.954;7.116;2022-12-11T20:00:10;31.23;;;15.53;;
5333;SDS011;2689;50.954;7.116;2022-12-11T20:02:37;34.60;;;18.53;;
5333;SDS011;2689;50.954;7.116;2022-12-11T20:05:04;32.53;;;18.57;;
5333;SDS011;2689;50.954;7.116;2022-12-11T20:07:32;33.53;;;17.93;;
5333;SDS011;2689;50.954;7.116;2022-12-11T20:09:59;30.63;;;17.43;;
5333;SDS011;2689;50.954;7.116;2022-12-11T20:12:27;31.37;;;18.23;;
5333;SDS011;2689;50.954;7.116;2022-12-11T20:14:54;34.53;;;17.50;;
5333;SDS011;2689;50.954;7.116;2022-12-11T20:17:21;32.93;;;15.87;;
5333;SDS011;2689;50.954;7.116;2022-12-11T20:19:48;30.93;;;18.07;;
5333;SDS011;2689;50.954;7.116;2022-12-11T20:22:14;34.27;;;19.53;;
5333;SDS011;2689;50.954;7.116;2022-12-11T20:24:41;30.20;;;18.77;;
5333;SDS011;2689;50.954;7.116;2022-12-11T20:27:08;34.20;;;18.27;;
5333;SDS011;2689;50.954;7.116;2022-12-11T20:29:37;27.60;;;17.90;;
5333;SDS011;2689;50.954;7.116;2022-12-11T20:32:04;27.57;;;17.17;;
5333;SDS011;2689;50.954;7.116;2022-12-11T20:34:31;34.63;;;21.10;;
5333;SDS011;2689;50.954;7.116;2022-12-11T20:36:58;30.17;;;18.87;;
5333;SDS011;2689;50.954;7.116;2022-12-11T20:39:25;37.10;;;18.90;;
5333;SDS011;2689;50.954;7.116;2022-12-11T20:41:53;38.73;;;20.03;;
5333;SDS011;2689;50.954;7.116;2022-12-11T20:44:21;35.57;;;20.27;;
5333;SDS011;2689;50.954;7.116;2022-12-11T20:46:50;40.60;;;22.07;;
5333;SDS011;2689;50.954;7.116;2022-12-11T20:49:16;31.70;;;18.13;;
5333;SDS011;2689;50.954;7.116;2022-12-11T20:51:43;35.90;;;18.00;;
5333;SDS011;2689;50.954;7.116;2022-12-11T20:54:10;32.17;;;19.13;;
5333;SDS011;2689;50.954;7.116;2022-12-11T20:56:37;31.40;;;17.50;;
5333;SDS011;2689;50.954;7.116;2022-12-11T20:59:04;30.50;;;17.20;;
5333;SDS011;2689;50.954;7.116;2022-12-11T21:01:31;34.03;;;17.37;;
5333;SDS011;2689;50.954;7.116;2022-12-11T21:04:00;31.40;;;17.13;;
5333;SDS011;2689;50.954;7.116;2022-12-11T21:06:27;28.47;;;17.83;;
5333;SDS011;2689;50.954;7.116;2022-12-11T21:08:55;34.80;;;18.13;;
5333;SDS011;2689;50.954;7.116;2022-12-11T21:11:22;34.50;;;17.67;;
5333;SDS011;2689;50.954;7.116;2022-12-11T21:13:50;32.00;;;16.93;;
5333;SDS011;2689;50.954;7.116;2022-12-11T21:16:18;32.53;;;18.03;;
5333;SDS011;2689;50.954;7.116;2022-12-11T21:18:46;25.70;;;15.40;;
5333;SDS011;2689;50.954;7.116;2022-12-11T21:21:15;30.40;;;17.97;;
5333;SDS011;2689;50.954;7.116;2022-12-11T21:23:43;31.10;;;16.90;;
5333;SDS011;2689;50.954;7.116;2022-12-11T21:26:10;29.67;;;17.83;;
5333;SDS011;2689;50.954;7.116;2022-12-11T21:28:37;27.87;;;16.93;;
5333;SDS011;2689;50.954;7.116;2022-12-11T21:31:12;27.27;;;15.50;;
5333;SDS011;2689;50.954;7.116;2022-12-11T21:33:41;29.50;;;17.07;;
5333;SDS011;2689;50.954;7.116;2022-12-11T21:36:09;29.13;;;17.03;;
5333;SDS011;2689;50.954;7.116;2022-12-11T21:38:38;26.07;;;15.20;;
5333;SDS011;2689;50.954;7.116;2022-12-11T21:41:08;28.70;;;15.87;;
5333;SDS011;2689;50.954;7.116;2022-12-11T21:43:37;34.23;;;18.77;;
5333;SDS011;2689;50.954;7.116;2022-12-11T21:46:05;28.07;;;16.10;;
5333;SDS011;2689;50.954;7.116;2022-12-11T21:48:36;27.33;;;16.00;;
5333;SDS011;2689;50.954;7.116;2022-12-11T21:51:04;28.40;;;17.10;;
5333;SDS011;2689;50.954;7.116;2022-12-11T21:53:32;28.03;;;15.87;;
5333;SDS011;2689;50.954;7.116;2022-12-11T21:56:09;27.63;;;15.10;;
5333;SDS011;2689;50.954;7.116;2022-12-11T21:58:38;31.00;;;16.40;;
5333;SDS011;2689;50.954;7.116;2022-12-11T22:01:10;29.37;;;16.70;;
5333;SDS011;2689;50.954;7.116;2022-12-11T22:03:39;27.53;;;15.80;;
5333;SDS011;2689;50.954;7.116;2022-12-11T22:06:06;29.87;;;16.37;;
5333;SDS011;2689;50.954;7.116;2022-12-11T22:08:33;27.77;;;15.00;;
5333;SDS011;2689;50.954;7.116;2022-12-11T22:11:00;28.97;;;15.30;;
5333;SDS011;2689;50.954;7.116;2022-12-11T22:13:28;29.40;;;17.13;;
5333;SDS011;2689;50.954;7.116;2022-12-11T22:15:55;29.90;;;16.07;;
5333;SDS011;2689;50.954;7.116;2022-12-11T22:18:22;24.10;;;13.60;;
5333;SDS011;2689;50.954;7.116;2022-12-11T22:20:51;24.63;;;14.67;;
5333;SDS011;2689;50.954;7.116;2022-12-11T22:23:26;25.90;;;15.60;;
5333;SDS011;2689;50.954;7.116;2022-12-11T22:25:53;32.13;;;15.97;;
5333;SDS011;2689;50.954;7.116;2022-12-11T22:28:20;29.57;;;16.07;;
5333;SDS011;2689;50.954;7.116;2022-12-11T22:30:49;27.43;;;14.70;;
5333;SDS011;2689;50.954;7.116;2022-12-11T22:33:16;25.57;;;16.10;;
5333;SDS011;2689;50.954;7.116;2022-12-11T22:35:42;27.23;;;15.90;;
5333;SDS011;2689;50.954;7.116;2022-12-11T22:38:09;26.57;;;14.53;;
5333;SDS011;2689;50.954;7.116;2022-12-11T22:40:37;24.90;;;15.70;;
5333;SDS011;2689;50.954;7.116;2022-12-11T22:43:09;27.67;;;15.30;;
5333;SDS011;2689;50.954;7.116;2022-12-11T22:45:39;28.03;;;15.83;;
5333;SDS011;2689;50.954;7.116;2022-12-11T22:48:07;28.27;;;17.23;;
5333;SDS011;2689;50.954;7.116;2022-12-11T22:50:35;27.40;;;16.00;;
5333;SDS011;2689;50.954;7.116;2022-12-11T22:53:04;30.20;;;16.77;;
5333;SDS011;2689;50.954;7.116;2022-12-11T22:55:31;29.87;;;16.77;;
5333;SDS011;2689;50.954;7.116;2022-12-11T22:57:58;27.20;;;16.50;;
5333;SDS011;2689;50.954;7.116;2022-12-11T23:00:25;26.50;;;15.93;;
5333;SDS011;2689;50.954;7.116;2022-12-11T23:02:52;27.20;;;15.23;;
5333;SDS011;2689;50.954;7.116;2022-12-11T23:05:20;27.93;;;14.40;;
5333;SDS011;2689;50.954;7.116;2022-12-11T23:07:46;25.03;;;14.87;;
5333;SDS011;2689;50.954;7.116;2022-12-11T23:10:13;24.40;;;15.00;;
5333;SDS011;2689;50.954;7.116;2022-12-11T23:12:40;26.37;;;16.13;;
5333;SDS011;2689;50.954;7.116;2022-12-11T23:15:07;26.20;;;16.60;;
5333;SDS011;2689;50.954;7.116;2022-12-11T23:17:34;26.83;;;16.50;;
5333;SDS011;2689;50.954;7.116;2022-12-11T23:20:02;26.30;;;14.87;;
5333;SDS011;2689;50.954;7.116;2022-12-11T23:22:31;24.17;;;15.37;;
5333;SDS011;2689;50.954;7.116;2022-12-11T23:24:58;25.63;;;15.83;;
5333;SDS011;2689;50.954;7.116;2022-12-11T23:27:25;27.03;;;16.00;;
5333;SDS011;2689;50.954;7.116;2022-12-11T23:29:52;23.93;;;15.00;;
5333;SDS011;2689;50.954;7.116;2022-12-11T23:32:19;29.07;;;16.47;;
5333;SDS011;2689;50.954;7.116;2022-12-11T23:34:45;24.83;;;15.50;;
5333;SDS011;2689;50.954;7.116;2022-12-11T23:37:13;27.77;;;15.53;;
5333;SDS011;2689;50.954;7.116;2022-12-11T23:39:41;29.90;;;16.63;;
5333;SDS011;2689;50.954;7.116;2022-12-11T23:42:08;27.43;;;15.30;;
5333;SDS011;2689;50.954;7.116;2022-12-11T23:44:35;26.73;;;14.53;;
5333;SDS011;2689;50.954;7.116;2022-12-11T23:47:02;27.90;;;16.20;;
5333;SDS011;2689;50.954;7.116;2022-12-11T23:49:28;28.30;;;16.03;;
5333;SDS011;2689;50.954;7.116;2022-12-11T23:51:55;25.53;;;15.50;;
5333;SDS011;2689;50.954;7.116;2022-12-11T23:54:22;29.57;;;16.43;;
5333;SDS011;2689;50.954;7.116;2022-12-11T23:56:50;27.70;;;16.97;;
5333;SDS011;2689;50.954;7.116;2022-12-11T23:59:17;25.03;;;15.47;;
